createdAt,value
2024-05-09T00:00:52.278Z,69.55
2024-05-09T00:02:24.257Z,69.83
2024-05-09T00:04:01.513Z,70.11
2024-05-09T00:05:33.528Z,70.36
2024-05-09T00:07:08.068Z,71.42
2024-05-09T00:08:39.957Z,71.24
2024-05-09T00:10:22.492Z,71.33
2024-05-09T00:12:01.138Z,71.31
2024-05-09T00:13:35.635Z,71.53
2024-05-09T00:15:08.814Z,71.27
2024-05-09T00:16:43.318Z,71.64
2024-05-09T00:18:15.828Z,71.53
2024-05-09T00:19:53.069Z,71.66
2024-05-09T00:21:24.959Z,72.44
2024-05-09T00:22:59.387Z,72.36
2024-05-09T00:24:33.845Z,71.94
2024-05-09T00:26:05.815Z,72.26
2024-05-09T00:27:42.004Z,72.43
2024-05-09T00:29:16.615Z,72.66
2024-05-09T00:30:48.575Z,72.76
2024-05-09T00:32:23.182Z,72.90
2024-05-09T00:33:55.259Z,72.95
2024-05-09T00:35:32.588Z,72.87
2024-05-09T00:37:07.225Z,72.67
2024-05-09T00:38:39.363Z,73.33
2024-05-09T00:40:22.458Z,73.25
2024-05-09T00:42:04.818Z,73.67
2024-05-09T00:43:36.695Z,73.80
2024-05-09T00:45:11.177Z,73.48
2024-05-09T00:46:43.303Z,74.25
2024-05-09T00:48:21.576Z,74.17
2024-05-09T00:49:54.143Z,74.09
2024-05-09T00:51:32.149Z,74.48
2024-05-09T00:53:06.084Z,74.94
2024-05-09T00:54:40.850Z,75.45
2024-05-09T00:56:13.281Z,75.61
2024-05-09T00:57:47.953Z,75.82
2024-05-09T00:59:20.026Z,75.80
2024-05-09T01:00:54.663Z,75.69
2024-05-09T01:02:28.659Z,75.85
2024-05-09T01:04:03.469Z,76.07
2024-05-09T01:05:35.790Z,76.11
2024-05-09T01:07:15.139Z,76.15
2024-05-09T01:08:47.239Z,75.99
2024-05-09T01:10:27.985Z,76.40
2024-05-09T01:12:06.627Z,77.10
2024-05-09T01:13:41.224Z,77.80
2024-05-09T01:15:13.083Z,78.10
2024-05-09T01:16:47.765Z,77.76
2024-05-09T01:18:19.986Z,77.58
2024-05-09T01:19:54.628Z,77.37
2024-05-09T01:21:26.537Z,77.83
2024-05-09T01:23:10.404Z,77.12
2024-05-09T01:24:42.443Z,77.24
2024-05-09T01:26:16.899Z,77.78
2024-05-09T01:27:49.177Z,77.88
2024-05-09T01:29:23.652Z,78.22
2024-05-09T01:30:56.040Z,77.82
2024-05-09T01:32:30.678Z,77.83
2024-05-09T01:34:03.041Z,78.12
2024-05-09T01:35:37.829Z,78.15
2024-05-09T01:37:09.839Z,77.88
2024-05-09T01:38:46.899Z,78.63
2024-05-09T01:40:25.291Z,79.08
2024-05-09T01:42:08.384Z,79.33
2024-05-09T01:43:40.374Z,79.87
2024-05-09T01:45:14.864Z,79.88
2024-05-09T01:46:49.311Z,81.15
2024-05-09T01:48:24.071Z,81.56
2024-05-09T01:49:56.080Z,81.40
2024-05-09T01:51:30.930Z,81.67
2024-05-09T01:53:02.916Z,80.94
2024-05-09T01:54:39.982Z,80.94
2024-05-09T01:56:11.974Z,80.59
2024-05-09T01:57:46.700Z,81.02
2024-05-09T01:59:19.515Z,81.02
2024-05-09T02:00:54.073Z,81.19
2024-05-09T02:02:25.999Z,80.73
2024-05-09T02:04:00.643Z,79.79
2024-05-09T02:05:32.711Z,79.89
2024-05-09T02:07:07.467Z,79.91
2024-05-09T02:08:42.008Z,79.96
2024-05-09T02:10:26.148Z,79.29
2024-05-09T02:12:04.064Z,79.04
2024-05-09T02:13:38.591Z,78.52
2024-05-09T02:15:10.428Z,78.17
2024-05-09T02:16:44.986Z,78.44
2024-05-09T02:18:17.036Z,77.94
2024-05-09T02:19:51.658Z,78.02
2024-05-09T02:21:24.324Z,78.04
2024-05-09T02:22:59.601Z,77.19
2024-05-09T02:24:34.138Z,77.54
2024-05-09T02:26:11.307Z,77.11
2024-05-09T02:27:43.566Z,77.17
2024-05-09T02:29:18.034Z,77.36
2024-05-09T02:30:49.909Z,77.45
2024-05-09T02:32:24.474Z,77.31
2024-05-09T02:33:56.826Z,77.27
2024-05-09T02:35:31.541Z,77.41
2024-05-09T02:37:03.651Z,77.17
2024-05-09T02:38:35.707Z,77.67
2024-05-09T02:40:14.764Z,77.94
2024-05-09T02:41:52.587Z,78.10
2024-05-09T02:43:27.080Z,77.75
2024-05-09T02:44:58.922Z,77.90
2024-05-09T02:46:30.767Z,78.13
2024-05-09T02:48:05.443Z,77.67
2024-05-09T02:49:37.687Z,78.05
2024-05-09T02:51:12.241Z,77.80
2024-05-09T02:52:44.147Z,78.27
2024-05-09T02:54:18.908Z,78.11
2024-05-09T02:55:51.017Z,78.53
2024-05-09T02:57:25.554Z,78.36
2024-05-09T02:59:00.030Z,78.58
2024-05-09T03:00:38.453Z,78.57
2024-05-09T03:02:15.714Z,78.41
2024-05-09T03:03:48.524Z,78.67
2024-05-09T03:05:20.582Z,78.57
2024-05-09T03:06:55.185Z,78.66
2024-05-09T03:08:28.032Z,78.92
2024-05-09T03:09:59.877Z,78.97
2024-05-09T03:11:34.464Z,79.28
2024-05-09T03:13:11.685Z,79.12
2024-05-09T03:14:46.574Z,79.20
2024-05-09T03:16:18.450Z,79.00
2024-05-09T03:17:53.025Z,79.46
2024-05-09T03:19:25.067Z,79.47
2024-05-09T03:20:57.176Z,79.56
2024-05-09T03:22:31.698Z,79.49
2024-05-09T03:24:03.690Z,79.73
2024-05-09T03:25:35.758Z,79.54
2024-05-09T03:27:10.281Z,80.11
2024-05-09T03:28:45.211Z,80.41
2024-05-09T03:30:29.192Z,80.83
2024-05-09T03:32:10.824Z,80.43
2024-05-09T03:33:42.827Z,80.70
2024-05-09T03:35:17.472Z,80.41
2024-05-09T03:36:52.041Z,80.16
2024-05-09T03:38:23.953Z,79.93
2024-05-09T03:39:58.433Z,80.09
2024-05-09T03:41:30.485Z,80.06
2024-05-09T03:43:05.103Z,79.80
2024-05-09T03:44:39.668Z,80.22
2024-05-09T03:46:14.487Z,80.12
2024-05-09T03:47:46.666Z,80.33
2024-05-09T03:49:18.804Z,80.15
2024-05-09T03:50:53.522Z,80.18
2024-05-09T03:52:25.607Z,80.51
2024-05-09T03:53:57.533Z,80.45
2024-05-09T03:55:33.727Z,80.58
2024-05-09T03:57:05.587Z,80.43
2024-05-09T03:58:38.523Z,80.33
2024-05-09T04:00:22.488Z,80.34
2024-05-09T04:02:02.549Z,81.43
2024-05-09T04:03:34.652Z,82.16
2024-05-09T04:05:09.694Z,82.21
2024-05-09T04:06:43.251Z,81.68
2024-05-09T04:08:15.810Z,81.90
2024-05-09T04:09:50.465Z,81.48
2024-05-09T04:11:22.834Z,81.57
2024-05-09T04:12:57.605Z,81.54
2024-05-09T04:14:29.599Z,81.88
2024-05-09T04:16:07.190Z,81.22
2024-05-09T04:17:39.221Z,81.10
2024-05-09T04:19:11.372Z,81.22
2024-05-09T04:20:46.304Z,80.92
2024-05-09T04:22:18.260Z,81.15
2024-05-09T04:23:50.184Z,80.69
2024-05-09T04:25:24.646Z,80.60
2024-05-09T04:26:56.923Z,79.90
2024-05-09T04:28:29.484Z,80.30
2024-05-09T04:30:06.079Z,80.12
2024-05-09T04:31:42.253Z,79.61
2024-05-09T04:33:15.078Z,79.46
2024-05-09T04:34:50.438Z,79.89
2024-05-09T04:36:22.344Z,79.54
2024-05-09T04:37:56.885Z,79.21
2024-05-09T04:39:29.053Z,78.57
2024-05-09T04:41:00.911Z,77.88
2024-05-09T04:42:35.402Z,77.98
2024-05-09T04:44:07.312Z,77.39
2024-05-09T04:45:39.216Z,77.59
2024-05-09T04:47:16.446Z,76.84
2024-05-09T04:48:49.050Z,75.95
2024-05-09T04:50:29.961Z,75.59
2024-05-09T04:52:10.675Z,75.37
2024-05-09T04:53:42.646Z,74.62
2024-05-09T04:55:14.724Z,74.50
2024-05-09T04:56:49.178Z,73.86
2024-05-09T04:58:21.462Z,73.07
2024-05-09T04:59:53.543Z,72.30
2024-05-09T05:01:28.342Z,71.86
2024-05-09T05:03:05.915Z,71.32
2024-05-09T05:04:38.243Z,71.43
2024-05-09T05:06:12.740Z,72.48
2024-05-09T05:07:44.707Z,72.24
2024-05-09T05:09:16.556Z,71.42
2024-05-09T05:10:51.119Z,71.14
2024-05-09T05:12:41.600Z,70.96
2024-05-09T05:14:13.563Z,70.88
2024-05-09T05:15:48.453Z,69.72
2024-05-09T05:17:20.598Z,69.38
2024-05-09T05:18:55.216Z,68.56
2024-05-09T05:20:33.628Z,68.90
2024-05-09T05:22:06.148Z,69.01
2024-05-09T05:23:41.054Z,70.53
2024-05-09T05:25:13.270Z,70.88
2024-05-09T05:26:45.190Z,69.91
2024-05-09T05:28:20.011Z,69.15
2024-05-09T05:29:51.905Z,68.38
2024-05-09T05:31:23.901Z,67.84
2024-05-09T05:32:58.493Z,68.54
2024-05-09T05:34:33.756Z,66.43
2024-05-09T05:36:06.544Z,65.61
2024-05-09T05:37:40.946Z,65.63
2024-05-09T05:39:12.816Z,65.47
2024-05-09T05:40:44.744Z,66.20
2024-05-09T05:42:19.354Z,64.47
2024-05-09T05:43:51.218Z,59.08
2024-05-09T05:45:23.188Z,52.55
2024-05-09T05:46:57.686Z,50.21
2024-05-09T05:48:29.808Z,47.87
2024-05-09T05:50:09.355Z,45.70
2024-05-09T05:51:48.939Z,42.26
2024-05-09T05:53:20.837Z,41.69
2024-05-09T05:54:55.645Z,39.69
2024-05-09T05:56:27.697Z,38.40
2024-05-09T05:58:00.675Z,39.84
2024-05-09T05:59:35.202Z,39.52
2024-05-09T06:01:07.219Z,38.49
2024-05-09T06:02:39.198Z,40.65
2024-05-09T06:04:14.666Z,38.92
2024-05-09T06:05:49.167Z,36.90
2024-05-09T06:07:22.091Z,35.59
2024-05-09T06:08:57.498Z,36.56
2024-05-09T06:10:37.447Z,35.28
2024-05-09T06:12:11.918Z,33.38
2024-05-09T06:13:46.765Z,34.10
2024-05-09T06:15:18.644Z,34.81
2024-05-09T06:16:50.543Z,32.72
2024-05-09T06:18:25.379Z,32.69
2024-05-09T06:19:57.722Z,31.02
2024-05-09T06:21:32.268Z,32.18
2024-05-09T06:23:07.454Z,31.53
2024-05-09T06:24:39.820Z,31.21
2024-05-09T06:26:11.794Z,31.83
2024-05-09T06:27:46.337Z,33.76
2024-05-09T06:29:18.281Z,31.95
2024-05-09T06:30:50.498Z,33.09
2024-05-09T06:32:25.134Z,33.68
2024-05-09T06:33:57.221Z,33.52
2024-05-09T06:35:29.272Z,30.88
2024-05-09T06:37:06.950Z,31.26
2024-05-09T06:38:38.932Z,30.69
2024-05-09T06:40:17.461Z,31.88
2024-05-09T06:41:49.658Z,33.38
2024-05-09T06:43:21.610Z,31.35
2024-05-09T06:44:56.496Z,30.23
2024-05-09T06:46:29.430Z,29.12
2024-05-09T06:48:04.068Z,32.00
2024-05-09T06:49:37.659Z,32.01
2024-05-09T06:51:09.766Z,31.02
2024-05-09T06:52:49.351Z,30.75
2024-05-09T06:54:21.428Z,29.96
2024-05-09T06:55:53.706Z,30.22
2024-05-09T06:57:29.849Z,29.65
2024-05-09T06:59:01.836Z,32.21
2024-05-09T07:00:39.787Z,32.07
2024-05-09T07:02:13.444Z,27.92
2024-05-09T07:03:45.550Z,29.17
2024-05-09T07:05:22.950Z,28.52
2024-05-09T07:06:54.879Z,28.56
2024-05-09T07:08:32.082Z,26.62
2024-05-09T07:10:07.771Z,27.68
2024-05-09T07:11:41.978Z,27.67
2024-05-09T07:13:17.060Z,27.30
2024-05-09T07:14:48.947Z,30.65
2024-05-09T07:16:21.281Z,30.52
2024-05-09T07:17:56.080Z,32.78
2024-05-09T07:19:29.853Z,34.27
2024-05-09T07:21:04.422Z,31.03
2024-05-09T07:22:36.452Z,33.37
2024-05-09T07:24:10.891Z,32.37
2024-05-09T07:25:45.617Z,32.47
2024-05-09T07:27:17.591Z,33.34
2024-05-09T07:28:52.149Z,33.72
2024-05-09T07:30:32.552Z,35.24
2024-05-09T07:32:09.304Z,33.54
2024-05-09T07:33:41.420Z,32.19
2024-05-09T07:35:13.402Z,31.82
2024-05-09T07:36:47.867Z,31.70
2024-05-09T07:38:19.901Z,32.40
2024-05-09T07:39:54.500Z,32.63
2024-05-09T07:41:29.571Z,32.28
2024-05-09T07:43:03.064Z,32.87
2024-05-09T07:44:37.669Z,33.04
2024-05-09T07:47:14.046Z,32.38
2024-05-09T07:51:32.224Z,32.01
2024-05-09T07:53:38.461Z,31.90
2024-05-09T07:55:14.275Z,32.55
2024-05-09T07:56:49.011Z,31.98
2024-05-09T07:58:22.456Z,29.23
2024-05-09T07:59:54.325Z,30.93
2024-05-09T08:01:28.968Z,28.10
2024-05-09T08:03:00.889Z,29.70
2024-05-09T08:04:32.950Z,28.29
2024-05-09T08:06:08.353Z,28.34
2024-05-09T08:07:40.235Z,30.08
2024-05-09T08:09:16.778Z,27.77
2024-05-09T08:10:56.941Z,28.48
2024-05-09T08:12:28.863Z,29.12
2024-05-09T08:14:03.413Z,29.00
2024-05-09T08:15:35.332Z,27.08
2024-05-09T08:17:07.355Z,30.06
2024-05-09T08:18:42.058Z,30.05
2024-05-09T08:20:22.516Z,26.58
2024-05-09T08:21:58.777Z,27.94
2024-05-09T08:23:33.281Z,30.89
2024-05-09T08:25:05.996Z,29.20
2024-05-09T08:26:40.531Z,27.00
2024-05-09T08:28:15.304Z,28.40
2024-05-09T08:29:47.336Z,28.07
2024-05-09T08:31:19.413Z,28.29
2024-05-09T08:32:54.126Z,29.00
2024-05-09T08:34:26.255Z,26.93
2024-05-09T08:36:01.237Z,27.80
2024-05-09T08:37:37.917Z,27.04
2024-05-09T08:39:11.862Z,27.54
2024-05-09T08:40:46.479Z,28.52
2024-05-09T08:42:23.340Z,28.29
2024-05-09T08:43:55.260Z,25.82
2024-05-09T08:45:30.219Z,26.15
2024-05-09T08:47:07.100Z,25.31
2024-05-09T08:48:40.221Z,24.04
2024-05-09T08:50:28.952Z,25.46
2024-05-09T08:52:08.488Z,24.96
2024-05-09T08:53:40.585Z,26.27
2024-05-09T08:55:15.233Z,23.95
2024-05-09T08:56:49.648Z,26.06
2024-05-09T08:58:27.836Z,26.58
2024-05-09T09:00:04.824Z,27.62
2024-05-09T09:01:41.669Z,26.59
2024-05-09T09:03:19.967Z,27.94
2024-05-09T09:04:56.639Z,31.01
2024-05-09T09:06:29.711Z,28.83
2024-05-09T09:08:09.231Z,28.07
2024-05-09T09:09:43.578Z,27.16
2024-05-09T09:11:18.789Z,28.47
2024-05-09T09:12:57.789Z,26.96
2024-05-09T09:14:32.331Z,28.00
2024-05-09T09:16:07.425Z,25.83
2024-05-09T09:17:40.051Z,27.09
2024-05-09T09:19:15.310Z,25.87
2024-05-09T09:20:47.546Z,28.02
2024-05-09T09:22:19.864Z,22.44
2024-05-09T09:23:54.989Z,21.57
2024-05-09T09:25:26.876Z,22.42
2024-05-09T09:27:01.971Z,22.59
2024-05-09T09:28:36.916Z,26.90
2024-05-09T09:30:27.714Z,26.37
2024-05-09T09:32:10.491Z,26.08
2024-05-09T09:33:42.665Z,24.58
2024-05-09T09:35:17.483Z,23.65
2024-05-09T09:36:50.744Z,22.21
2024-05-09T09:38:23.940Z,21.00
2024-05-09T09:39:58.722Z,21.02
2024-05-09T09:41:33.299Z,21.98
2024-05-09T09:43:12.032Z,21.74
2024-05-09T09:44:51.391Z,19.72
2024-05-09T09:46:35.665Z,23.28
2024-05-09T09:48:09.225Z,25.20
2024-05-09T09:49:45.788Z,26.34
2024-05-09T09:51:18.264Z,28.01
2024-05-09T09:52:54.573Z,27.73
2024-05-09T09:54:28.730Z,27.47
2024-05-09T09:56:01.852Z,28.55
2024-05-09T09:57:38.473Z,29.14
2024-05-09T09:59:13.414Z,29.42
2024-05-09T10:00:45.724Z,30.03
2024-05-09T10:02:23.216Z,31.32
2024-05-09T10:03:55.324Z,30.83
2024-05-09T10:05:30.749Z,30.73
2024-05-09T10:07:07.511Z,26.52
2024-05-09T10:08:40.185Z,25.57
2024-05-09T10:10:16.604Z,28.47
2024-05-09T10:11:58.013Z,23.02
2024-05-09T10:13:35.465Z,24.42
2024-05-09T10:15:11.376Z,22.11
2024-05-09T10:16:44.590Z,20.04
2024-05-09T10:18:26.107Z,19.57
2024-05-09T10:20:18.284Z,19.74
2024-05-09T10:22:00.950Z,24.19
2024-05-09T10:23:34.457Z,23.38
2024-05-09T10:25:10.104Z,22.87
2024-05-09T10:26:42.291Z,25.61
2024-05-09T10:28:14.551Z,24.14
2024-05-09T10:29:55.801Z,24.13
2024-05-09T10:31:29.003Z,25.85
2024-05-09T10:33:03.658Z,26.62
2024-05-09T10:34:38.300Z,23.07
2024-05-09T10:36:13.534Z,23.09
2024-05-09T10:37:48.461Z,22.63
2024-05-09T10:39:21.241Z,20.64
2024-05-09T10:40:56.675Z,23.23
2024-05-09T10:42:31.727Z,21.93
2024-05-09T10:44:10.426Z,22.89
2024-05-09T10:45:42.376Z,24.57
2024-05-09T10:47:18.032Z,24.39
2024-05-09T10:48:50.784Z,24.38
2024-05-09T10:50:33.667Z,27.06
2024-05-09T10:52:08.539Z,23.50
2024-05-09T10:53:41.633Z,23.16
2024-05-09T10:55:16.599Z,22.57
2024-05-09T10:56:56.104Z,22.20
2024-05-09T10:58:28.501Z,20.94
2024-05-09T11:00:06.318Z,21.71
2024-05-09T11:01:40.471Z,19.74
2024-05-09T11:03:16.435Z,21.26
2024-05-09T11:04:49.080Z,19.67
2024-05-09T11:06:26.701Z,16.50
2024-05-09T11:07:58.878Z,18.53
2024-05-09T11:09:31.879Z,17.48
2024-05-09T11:11:08.805Z,20.70
2024-05-09T11:12:45.797Z,21.64
2024-05-09T11:14:17.859Z,24.45
2024-05-09T11:15:53.604Z,25.57
2024-05-09T11:17:25.698Z,25.81
2024-05-09T11:18:58.592Z,22.70
2024-05-09T11:20:37.256Z,25.26
2024-05-09T11:22:12.068Z,23.85
2024-05-09T11:23:44.354Z,21.33
2024-05-09T11:25:18.959Z,22.52
2024-05-09T11:26:50.975Z,24.49
2024-05-09T11:28:23.598Z,21.03
2024-05-09T11:29:58.624Z,21.92
2024-05-09T11:31:30.655Z,21.94
2024-05-09T11:33:02.796Z,20.40
2024-05-09T11:34:37.507Z,22.02
2024-05-09T11:36:10.057Z,21.07
2024-05-09T11:37:47.595Z,20.03
2024-05-09T11:39:19.796Z,22.48
2024-05-09T11:40:51.863Z,23.68
2024-05-09T11:42:26.333Z,25.52
2024-05-09T11:43:58.260Z,27.52
2024-05-09T11:45:30.177Z,28.36
2024-05-09T11:47:05.448Z,29.72
2024-05-09T11:48:39.728Z,30.84
2024-05-09T11:50:19.133Z,30.65
2024-05-09T11:52:01.194Z,29.27
2024-05-09T11:53:35.813Z,24.65
2024-05-09T11:55:08.296Z,23.00
2024-05-09T11:56:42.885Z,24.87
2024-05-09T11:58:17.371Z,21.89
2024-05-09T11:59:49.933Z,21.33
2024-05-09T12:01:27.570Z,19.32
2024-05-09T12:02:59.931Z,20.65
2024-05-09T12:04:32.103Z,20.87
2024-05-09T12:06:07.204Z,20.90
2024-05-09T12:07:39.387Z,18.65
2024-05-09T12:09:16.613Z,21.08
2024-05-09T12:10:49.147Z,20.37
2024-05-09T12:12:23.825Z,21.33
2024-05-09T12:13:55.724Z,20.33
2024-05-09T12:15:27.675Z,22.26
2024-05-09T12:17:03.842Z,22.86
2024-05-09T12:18:36.050Z,25.01
2024-05-09T12:20:14.306Z,25.15
2024-05-09T12:21:56.188Z,25.87
2024-05-09T12:23:28.097Z,27.06
2024-05-09T12:25:04.872Z,27.12
2024-05-09T12:26:39.361Z,27.61
2024-05-09T12:28:11.447Z,22.67
2024-05-09T12:29:43.423Z,21.09
2024-05-09T12:31:17.960Z,23.71
2024-05-09T12:32:50.162Z,22.92
2024-05-09T12:34:22.269Z,21.68
2024-05-09T12:35:56.907Z,21.66
2024-05-09T12:37:28.981Z,19.76
2024-05-09T12:39:00.992Z,21.22
2024-05-09T12:40:39.232Z,19.77
2024-05-09T12:42:14.539Z,19.39
2024-05-09T12:43:54.148Z,21.47
2024-05-09T12:45:26.048Z,22.28
2024-05-09T12:46:57.991Z,19.85
2024-05-09T12:48:32.840Z,20.97
2024-05-09T12:50:08.297Z,20.48
2024-05-09T12:51:47.759Z,19.83
2024-05-09T12:53:19.639Z,20.39
2024-05-09T12:54:54.572Z,20.06
2024-05-09T12:56:29.331Z,18.70
2024-05-09T12:58:01.252Z,17.77
2024-05-09T12:59:35.878Z,19.47
2024-05-09T13:01:07.862Z,18.66
2024-05-09T13:02:40.058Z,20.74
2024-05-09T13:04:14.821Z,18.34
2024-05-09T13:05:47.192Z,18.84
2024-05-09T13:07:19.650Z,20.52
2024-05-09T13:08:54.362Z,21.47
2024-05-09T13:10:32.039Z,24.08
2024-05-09T13:12:10.844Z,22.82
2024-05-09T13:13:42.738Z,22.57
2024-05-09T13:15:14.808Z,22.97
2024-05-09T13:16:49.360Z,23.69
2024-05-09T13:18:21.334Z,23.01
2024-05-09T13:19:53.207Z,21.18
2024-05-09T13:21:27.678Z,20.63
2024-05-09T13:23:00.994Z,19.58
2024-05-09T13:24:32.934Z,22.00
2024-05-09T13:26:07.749Z,21.87
2024-05-09T13:27:42.340Z,20.06
2024-05-09T13:29:14.226Z,19.12
2024-05-09T13:30:48.736Z,21.51
2024-05-09T13:32:20.787Z,21.00
2024-05-09T13:33:52.838Z,21.89
2024-05-09T13:35:27.444Z,22.15
2024-05-09T13:36:59.422Z,25.83
2024-05-09T13:38:33.876Z,26.97
2024-05-09T13:40:07.583Z,26.78
2024-05-09T13:41:41.416Z,29.81
2024-05-09T13:43:18.880Z,29.35
2024-05-09T13:44:50.856Z,29.41
2024-05-09T13:46:25.616Z,28.42
2024-05-09T13:47:57.739Z,25.61
2024-05-09T13:49:29.791Z,25.09
2024-05-09T13:51:04.316Z,22.48
2024-05-09T13:52:36.182Z,22.81
2024-05-09T13:54:10.640Z,23.64
2024-05-09T13:55:42.564Z,25.94
2024-05-09T13:57:14.434Z,24.19
2024-05-09T13:58:52.373Z,22.34
2024-05-09T14:00:38.148Z,21.99
2024-05-09T14:02:16.269Z,23.68
2024-05-09T14:03:51.005Z,22.82
2024-05-09T14:05:23.358Z,24.82
2024-05-09T14:06:57.936Z,23.17
2024-05-09T14:08:29.934Z,24.92
2024-05-09T14:10:01.890Z,24.89
2024-05-09T14:11:36.408Z,23.27
2024-05-09T14:13:08.430Z,23.64
2024-05-09T14:14:42.999Z,21.77
2024-05-09T14:16:17.644Z,22.21
2024-05-09T14:17:49.692Z,25.22
2024-05-09T14:19:24.265Z,25.34
2024-05-09T14:20:56.138Z,23.82
2024-05-09T14:22:30.613Z,26.32
2024-05-09T14:24:02.697Z,25.62
2024-05-09T14:25:38.763Z,26.44
2024-05-09T14:27:16.021Z,24.46
2024-05-09T14:28:48.008Z,25.15
2024-05-09T14:30:30.452Z,26.04
2024-05-09T14:32:10.850Z,27.29
2024-05-09T14:33:42.852Z,26.72
2024-05-09T14:35:17.873Z,27.32
2024-05-09T14:36:49.880Z,27.16
2024-05-09T14:38:24.581Z,29.89
2024-05-09T14:39:56.524Z,29.10
2024-05-09T14:41:31.088Z,26.61
2024-05-09T14:43:03.269Z,27.44
2024-05-09T14:44:35.356Z,28.62
2024-05-09T14:46:12.830Z,28.17
2024-05-09T14:47:44.807Z,28.76
2024-05-09T14:49:19.506Z,28.47
2024-05-09T14:50:51.507Z,27.86
2024-05-09T14:52:23.463Z,27.71
2024-05-09T14:53:58.082Z,28.45
2024-05-09T14:55:30.026Z,27.76
2024-05-09T14:57:02.214Z,30.48
2024-05-09T14:58:36.705Z,30.28
2024-05-09T15:00:17.426Z,29.73
2024-05-09T15:02:02.634Z,29.25
2024-05-09T15:03:34.709Z,30.28
2024-05-09T15:05:07.602Z,30.86
2024-05-09T15:06:43.166Z,31.27
2024-05-09T15:08:16.866Z,30.04
2024-05-09T15:09:48.751Z,30.70
2024-05-09T15:11:23.580Z,30.59
2024-05-09T15:12:55.533Z,30.67
2024-05-09T15:14:27.818Z,30.37
2024-05-09T15:16:02.417Z,31.66
2024-05-09T15:17:37.024Z,32.21
2024-05-09T15:19:09.369Z,30.49
2024-05-09T15:20:45.403Z,30.35
2024-05-09T15:22:17.570Z,29.87
2024-05-09T15:23:49.501Z,32.18
2024-05-09T15:25:23.979Z,31.58
2024-05-09T15:26:55.980Z,29.61
2024-05-09T15:28:27.974Z,31.29
2024-05-09T15:30:05.629Z,30.25
2024-05-09T15:31:40.687Z,31.11
2024-05-09T15:33:15.786Z,32.71
2024-05-09T15:34:50.231Z,32.92
2024-05-09T15:36:22.205Z,34.17
2024-05-09T15:37:54.434Z,32.73
2024-05-09T15:39:30.358Z,32.72
2024-05-09T15:41:05.244Z,30.66
2024-05-09T15:42:38.731Z,32.55
2024-05-09T15:44:14.293Z,31.71
2024-05-09T15:45:46.260Z,29.88
2024-05-09T15:47:18.302Z,31.65
2024-05-09T15:48:55.907Z,33.83
2024-05-09T15:50:35.897Z,32.14
2024-05-09T15:52:14.329Z,32.08
2024-05-09T15:53:46.323Z,32.20
2024-05-09T15:55:18.315Z,32.73
2024-05-09T15:56:53.163Z,32.90
2024-05-09T15:58:25.567Z,30.89
2024-05-09T15:59:58.082Z,31.49
2024-05-09T16:01:32.774Z,31.46
2024-05-09T16:03:05.401Z,29.98
2024-05-09T16:04:40.021Z,31.19
2024-05-09T16:06:14.770Z,30.52
2024-05-09T16:07:46.981Z,32.55
2024-05-09T16:09:21.150Z,32.37
2024-05-09T16:10:56.233Z,31.14
2024-05-09T16:12:28.287Z,33.79
2024-05-09T16:14:00.169Z,30.94
2024-05-09T16:15:37.652Z,32.03
2024-05-09T16:17:09.619Z,32.60
2024-05-09T16:18:41.778Z,32.69
2024-05-09T16:20:29.912Z,32.74
2024-05-09T16:22:10.393Z,33.21
2024-05-09T16:23:44.880Z,32.75
2024-05-09T16:25:18.081Z,33.16
2024-05-09T16:26:50.466Z,33.47
2024-05-09T16:28:26.957Z,33.22
2024-05-09T16:30:04.115Z,32.40
2024-05-09T16:31:41.284Z,30.45
2024-05-09T16:33:13.594Z,30.77
2024-05-09T16:34:48.262Z,32.62
2024-05-09T16:36:22.907Z,30.97
2024-05-09T16:37:54.805Z,33.26
2024-05-09T16:39:29.388Z,31.92
2024-05-09T16:41:01.828Z,32.00
2024-05-09T16:42:33.922Z,31.96
2024-05-09T16:44:08.984Z,31.32
2024-05-09T16:45:43.839Z,32.20
2024-05-09T16:47:16.015Z,30.86
2024-05-09T16:48:50.873Z,30.77
2024-05-09T16:50:29.262Z,32.04
2024-05-09T16:52:10.234Z,32.40
2024-05-09T16:53:42.465Z,30.45
2024-05-09T16:55:14.454Z,31.35
2024-05-09T16:56:49.145Z,32.94
2024-05-09T16:58:21.474Z,31.75
2024-05-09T16:59:56.050Z,33.04
2024-05-09T17:01:28.797Z,33.71
2024-05-09T17:03:00.914Z,31.09
2024-05-09T17:04:35.580Z,32.74
2024-05-09T17:06:08.292Z,31.82
2024-05-09T17:07:43.432Z,33.25
2024-05-09T17:09:19.943Z,33.12
2024-05-09T17:10:52.512Z,32.15
2024-05-09T17:12:28.101Z,32.48
2024-05-09T17:13:59.976Z,32.52
2024-05-09T17:15:35.196Z,34.06
2024-05-09T17:17:08.963Z,33.98
2024-05-09T17:18:43.796Z,33.31
2024-05-09T17:20:25.975Z,33.37
2024-05-09T17:22:07.585Z,33.94
2024-05-09T17:23:42.182Z,33.17
2024-05-09T17:25:14.375Z,34.44
2024-05-09T17:26:49.651Z,33.03
2024-05-09T17:28:21.657Z,33.88
2024-05-09T17:29:54.186Z,33.80
2024-05-09T17:31:28.727Z,35.05
2024-05-09T17:33:00.998Z,34.17
2024-05-09T17:34:33.325Z,35.54
2024-05-09T17:36:08.507Z,34.74
2024-05-09T17:37:40.425Z,35.70
2024-05-09T17:39:17.539Z,35.41
2024-05-09T17:40:49.587Z,37.33
2024-05-09T17:42:24.160Z,37.71
2024-05-09T17:43:56.093Z,38.94
2024-05-09T17:45:30.803Z,39.74
2024-05-09T17:47:02.873Z,40.20
2024-05-09T17:48:35.800Z,40.07
2024-05-09T17:50:17.243Z,40.46
2024-05-09T17:51:56.236Z,41.39
2024-05-09T17:53:28.405Z,41.68
2024-05-09T17:55:05.568Z,41.95
2024-05-09T17:56:37.606Z,41.96
2024-05-09T17:58:10.234Z,42.22
2024-05-09T17:59:44.812Z,41.93
2024-05-09T18:01:16.753Z,42.79
2024-05-09T18:02:48.705Z,43.00
2024-05-09T18:04:23.257Z,43.44
2024-05-09T18:05:55.300Z,42.95
2024-05-09T18:07:30.517Z,42.21
2024-05-09T18:09:02.462Z,42.76
2024-05-09T18:10:39.692Z,43.25
2024-05-09T18:12:15.134Z,44.25
2024-05-09T18:13:47.071Z,44.93
2024-05-09T18:15:18.978Z,45.65
2024-05-09T18:16:54.005Z,46.48
2024-05-09T18:18:25.973Z,46.69
2024-05-09T18:19:57.953Z,47.37
2024-05-09T18:21:32.665Z,47.72
2024-05-09T18:23:04.993Z,48.89
2024-05-09T18:24:39.497Z,48.40
2024-05-09T18:26:14.139Z,47.88
2024-05-09T18:27:46.382Z,48.11
2024-05-09T18:29:22.343Z,48.91
2024-05-09T18:30:54.389Z,48.21
2024-05-09T18:32:26.403Z,49.53
2024-05-09T18:34:00.957Z,49.41
2024-05-09T18:35:33.183Z,49.61
2024-05-09T18:37:05.543Z,50.72
2024-05-09T18:38:41.486Z,50.17
2024-05-09T18:40:21.148Z,51.12
2024-05-09T18:42:05.244Z,51.95
2024-05-09T18:43:44.668Z,53.25
2024-05-09T18:45:17.416Z,53.60
2024-05-09T18:46:51.870Z,54.34
2024-05-09T18:48:23.921Z,54.40
2024-05-09T18:49:55.934Z,54.12
2024-05-09T18:51:30.663Z,53.41
2024-05-09T18:53:02.885Z,52.89
2024-05-09T18:54:37.457Z,53.43
2024-05-09T18:56:09.441Z,52.34
2024-05-09T18:57:46.580Z,52.28
2024-05-09T18:59:18.423Z,53.06
2024-05-09T19:00:55.013Z,53.71
2024-05-09T19:02:27.910Z,54.08
2024-05-09T19:04:02.744Z,55.39
2024-05-09T19:05:35.582Z,55.75
2024-05-09T19:07:08.724Z,55.69
2024-05-09T19:08:43.266Z,56.36
2024-05-09T19:10:22.125Z,56.03
2024-05-09T19:12:00.587Z,56.59
2024-05-09T19:13:37.812Z,56.67
2024-05-09T19:15:09.708Z,56.65
2024-05-09T19:16:44.701Z,56.82
2024-05-09T19:18:17.280Z,56.33
2024-05-09T19:19:52.416Z,56.89
2024-05-09T19:21:24.541Z,56.43
2024-05-09T19:22:56.545Z,56.28
2024-05-09T19:24:31.066Z,56.83
2024-05-09T19:26:03.203Z,57.22
2024-05-09T19:27:35.209Z,57.28
2024-05-09T19:29:12.376Z,57.39
2024-05-09T19:30:44.374Z,57.41
2024-05-09T19:32:19.118Z,57.45
2024-05-09T19:33:51.572Z,57.76
2024-05-09T19:35:23.627Z,57.93
2024-05-09T19:37:00.053Z,58.03
2024-05-09T19:38:32.242Z,58.49
2024-05-09T19:40:08.331Z,58.50
2024-05-09T19:41:42.986Z,59.00
2024-05-09T19:43:14.971Z,58.95
2024-05-09T19:44:52.266Z,58.77
2024-05-09T19:46:24.350Z,59.27
2024-05-09T19:47:56.722Z,59.58
2024-05-09T19:49:31.505Z,59.98
2024-05-09T19:51:03.791Z,60.43
2024-05-09T19:52:35.799Z,60.44
2024-05-09T19:54:10.697Z,60.81
2024-05-09T19:55:43.062Z,61.44
2024-05-09T19:57:18.357Z,62.02
2024-05-09T19:58:50.295Z,61.81
2024-05-09T20:00:32.535Z,61.96
2024-05-09T20:02:10.424Z,62.34
2024-05-09T20:03:42.635Z,62.33
2024-05-09T20:05:17.482Z,62.63
2024-05-09T20:06:50.554Z,62.66
2024-05-09T20:08:22.444Z,63.38
2024-05-09T20:09:56.939Z,63.79
2024-05-09T20:11:28.909Z,63.48
2024-05-09T20:13:00.914Z,64.54
2024-05-09T20:14:35.424Z,63.93
2024-05-09T20:16:10.347Z,64.32
2024-05-09T20:17:42.296Z,64.32
2024-05-09T20:19:17.057Z,65.04
2024-05-09T20:20:52.444Z,65.37